createdAt,value
2018-11-27T00:02:36.946Z,96491.62
2018-11-27T00:07:31.418Z,96494.17
2018-11-27T00:12:25.921Z,96492.98
2018-11-27T00:17:20.390Z,96494.17
2018-11-27T00:22:14.894Z,96508.77
2018-11-27T00:27:09.337Z,96504.66
2018-11-27T00:32:03.831Z,96512.81
2018-11-27T00:36:58.289Z,96507.73
2018-11-27T00:41:52.710Z,96513.08
2018-11-27T00:46:47.119Z,96518.64
2018-11-27T00:51:41.571Z,96525.70
2018-11-27T00:56:35.995Z,96520.36
2018-11-27T01:01:30.424Z,96524.05
2018-11-27T01:06:24.873Z,96534.80
2018-11-27T01:11:19.290Z,96539.52
2018-11-27T01:16:13.774Z,96549.80
2018-11-27T01:21:08.238Z,96556.41
2018-11-27T01:26:02.713Z,96561.71
2018-11-27T01:30:57.111Z,96563.45
2018-11-27T01:35:51.570Z,96574.16
2018-11-27T01:40:45.995Z,96569.75
2018-11-27T01:45:40.412Z,96564.75
2018-11-27T01:50:34.978Z,96571.05
2018-11-27T01:55:29.455Z,96574.11
2018-11-27T02:00:26.023Z,96577.59
2018-11-27T02:05:20.586Z,96583.92
2018-11-27T02:10:15.089Z,96582.36
2018-11-27T02:15:13.909Z,96581.91
2018-11-27T02:20:10.758Z,96585.69
2018-11-27T02:25:07.810Z,96585.11
2018-11-27T02:30:02.302Z,96586.48
2018-11-27T02:34:56.814Z,96584.87
2018-11-27T02:39:51.238Z,96587.13
2018-11-27T02:44:45.762Z,96593.04
2018-11-27T02:49:40.170Z,96600.91
2018-11-27T02:54:34.620Z,96605.26
2018-11-27T02:59:29.083Z,96616.89
2018-11-27T03:04:23.572Z,96613.33
2018-11-27T03:09:18.070Z,96619.62
2018-11-27T03:14:12.553Z,96623.77
2018-11-27T03:19:07.085Z,96629.11
2018-11-27T03:24:01.592Z,96629.59
2018-11-27T03:28:56.102Z,96637.14
2018-11-27T03:33:50.635Z,96644.42
2018-11-27T03:38:45.228Z,96643.86
2018-11-27T03:43:39.689Z,96652.04
2018-11-27T03:48:34.147Z,96662.86
2018-11-27T03:53:28.675Z,96659.88
2018-11-27T03:58:23.148Z,96659.32
2018-11-27T04:03:17.708Z,96662.78
2018-11-27T04:08:12.186Z,96669.07
2018-11-27T04:13:06.798Z,96672.09
2018-11-27T04:18:01.248Z,96679.77
2018-11-27T04:22:55.674Z,96687.08
2018-11-27T04:27:50.143Z,96688.84
2018-11-27T04:32:44.784Z,96691.64
2018-11-27T04:37:39.268Z,96699.78
2018-11-27T04:42:33.761Z,96702.45
2018-11-27T04:47:28.332Z,96705.24
2018-11-27T04:52:22.890Z,96715.11
2018-11-27T04:57:17.406Z,96714.63
2018-11-27T05:02:11.974Z,96720.56
2018-11-27T05:07:07.031Z,96721.32
2018-11-27T05:12:01.540Z,96728.31
2018-11-27T05:16:56.416Z,96727.37
2018-11-27T05:21:51.002Z,96738.14
2018-11-27T05:26:45.602Z,96734.75
2018-11-27T05:31:40.292Z,96739.30
2018-11-27T05:36:34.939Z,96743.45
2018-11-27T05:41:29.447Z,96739.06
2018-11-27T05:46:24.041Z,96747.52
2018-11-27T05:51:18.576Z,96752.63
2018-11-27T05:56:13.151Z,96755.03
2018-11-27T06:01:08.021Z,96760.31
2018-11-27T06:06:02.577Z,96771.51
2018-11-27T06:10:57.086Z,96771.89
2018-11-27T06:15:51.617Z,96779.22
2018-11-27T06:20:46.986Z,96791.47
2018-11-27T06:25:41.659Z,96793.32
2018-11-27T06:30:36.759Z,96800.56
2018-11-27T06:35:42.329Z,96805.77
2018-11-27T06:40:37.082Z,96820.73
2018-11-27T06:45:31.730Z,96819.67
2018-11-27T06:50:26.348Z,96827.77
2018-11-27T06:55:24.554Z,96829.22
2018-11-27T07:00:25.201Z,96831.55
2018-11-27T07:05:24.050Z,96847.03
2018-11-27T07:10:24.682Z,96861.60
2018-11-27T07:15:22.220Z,96861.35
2018-11-27T07:20:16.831Z,96868.13
2018-11-27T07:25:14.864Z,96865.41
2018-11-27T07:30:17.035Z,96876.05
2018-11-27T07:35:13.610Z,96878.14
2018-11-27T07:40:22.146Z,96890.07
2018-11-27T07:45:20.239Z,96892.09
2018-11-27T07:50:15.915Z,96898.70
2018-11-27T07:55:12.605Z,96902.80
2018-11-27T08:00:23.893Z,96912.00
2018-11-27T08:05:24.573Z,96917.61
2018-11-27T08:10:21.072Z,96933.19
2018-11-27T08:15:25.039Z,96938.86
2018-11-27T08:20:24.487Z,96945.96
2018-11-27T08:25:19.929Z,96946.35
2018-11-27T08:30:21.961Z,96948.55
2018-11-27T08:35:27.620Z,96960.55
2018-11-27T08:40:24.755Z,96961.22
2018-11-27T08:45:21.853Z,96967.64
2018-11-27T08:50:22.190Z,96974.16
2018-11-27T08:55:20.359Z,96982.79
2018-11-27T09:00:24.146Z,96985.83
2018-11-27T09:05:19.107Z,96992.34
2018-11-27T09:10:24.211Z,97004.39
2018-11-27T09:15:20.639Z,97005.29
2018-11-27T09:20:15.770Z,97014.95
2018-11-27T09:25:13.248Z,97025.95
2018-11-27T09:30:19.426Z,97023.13
2018-11-27T09:35:18.987Z,97019.91
2018-11-27T09:40:19.405Z,97024.69
2018-11-27T09:45:26.764Z,97027.41
2018-11-27T09:50:25.669Z,97031.34
2018-11-27T09:55:23.575Z,97028.61
2018-11-27T10:00:33.417Z,97027.70
2018-11-27T10:05:29.310Z,97027.34
2018-11-27T10:10:25.958Z,97023.31
2018-11-27T10:15:23.870Z,97026.16
2018-11-27T10:20:21.365Z,97029.52
2018-11-27T10:25:16.180Z,97027.89
2018-11-27T10:30:19.570Z,97021.82
2018-11-27T10:35:46.794Z,97023.05
2018-11-27T10:40:41.670Z,97028.89
2018-11-27T10:45:36.554Z,97039.25
2018-11-27T10:50:32.126Z,97034.29
2018-11-27T10:55:27.239Z,97031.80
2018-11-27T11:00:30.623Z,97034.31
2018-11-27T11:05:40.904Z,97037.63
2018-11-27T11:10:35.514Z,97035.33
2018-11-27T11:15:30.051Z,97028.38
2018-11-27T11:20:25.238Z,97022.42
2018-11-27T11:25:23.094Z,97020.80
2018-11-27T11:30:19.999Z,97037.91
2018-11-27T11:35:14.765Z,97043.41
2018-11-27T11:40:18.936Z,97038.58
2018-11-27T11:45:14.414Z,97047.48
2018-11-27T11:50:15.535Z,97052.70
2018-11-27T11:55:12.556Z,97057.66
2018-11-27T12:00:11.634Z,97064.70
2018-11-27T12:05:07.713Z,97061.69
2018-11-27T12:10:02.418Z,97062.79
2018-11-27T12:14:56.973Z,97060.50
2018-11-27T12:19:51.854Z,97062.98
2018-11-27T12:24:46.648Z,97072.19
2018-11-27T12:29:41.147Z,97070.04
2018-11-27T12:34:36.370Z,97073.52
2018-11-27T12:39:47.165Z,97082.52
2018-11-27T12:44:42.879Z,97085.46
2018-11-27T12:49:39.991Z,97087.07
2018-11-27T12:54:35.013Z,97081.66
2018-11-27T12:59:32.584Z,97086.16
2018-11-27T13:04:27.528Z,97097.69
2018-11-27T13:09:22.017Z,97099.89
2018-11-27T13:14:16.523Z,97104.12
2018-11-27T13:19:11.264Z,97099.97
2018-11-27T13:24:06.166Z,97105.81
2018-11-27T13:29:00.952Z,97101.39
2018-11-27T13:34:06.629Z,97111.13
2018-11-27T13:39:18.049Z,97104.19
2018-11-27T13:44:12.729Z,97100.76
2018-11-27T13:49:07.478Z,97107.89
2018-11-27T13:54:16.609Z,97111.28
2018-11-27T13:59:12.260Z,97123.83
2018-11-27T14:04:16.766Z,97121.78
2018-11-27T14:09:12.419Z,97135.98
2018-11-27T14:14:09.956Z,97143.10
2018-11-27T14:19:04.863Z,97145.47
2018-11-27T14:24:00.996Z,97147.12
2018-11-27T14:28:55.566Z,97151.91
2018-11-27T14:33:50.255Z,97156.66
2018-11-27T14:38:45.247Z,97169.52
2018-11-27T14:43:40.070Z,97171.42
2018-11-27T14:48:35.112Z,97170.72
2018-11-27T14:53:30.550Z,97188.21
2018-11-27T14:58:25.525Z,97197.83
2018-11-27T15:03:20.314Z,97197.51
2018-11-27T15:08:15.063Z,97199.57
2018-11-27T15:13:15.347Z,97205.16
2018-11-27T15:18:18.850Z,97200.45
2018-11-27T15:23:13.599Z,97210.23
2018-11-27T15:28:08.375Z,97209.52
2018-11-27T15:33:02.843Z,97212.91
2018-11-27T15:37:58.390Z,97219.20
2018-11-27T15:42:53.410Z,97215.39
2018-11-27T15:47:48.227Z,97221.11
2018-11-27T15:52:42.774Z,97223.26
2018-11-27T15:57:37.542Z,97224.83
2018-11-27T16:02:32.052Z,97232.69
2018-11-27T16:07:26.534Z,97235.97
2018-11-27T16:12:20.950Z,97243.86
2018-11-27T16:17:15.474Z,97255.34
2018-11-27T16:22:09.963Z,97259.01
2018-11-27T16:27:04.933Z,97255.75
2018-11-27T16:31:59.423Z,97264.66
2018-11-27T16:36:53.905Z,97275.25
2018-11-27T16:41:48.448Z,97275.52
2018-11-27T16:46:42.868Z,97277.08
2018-11-27T16:51:37.346Z,97280.47
2018-11-27T16:56:31.818Z,97278.77
2018-11-27T17:01:26.283Z,97284.11
2018-11-27T17:06:20.746Z,97286.10
2018-11-27T17:11:15.183Z,97291.17
2018-11-27T17:16:09.688Z,97295.02
2018-11-27T17:21:05.906Z,97296.19
2018-11-27T17:26:04.030Z,97307.23
2018-11-27T17:31:11.957Z,97302.42
2018-11-27T17:36:09.462Z,97315.75
2018-11-27T17:41:03.930Z,97303.72
2018-11-27T17:45:58.446Z,97318.64
2018-11-27T17:50:53.078Z,97312.72
2018-11-27T17:55:47.979Z,97317.20
2018-11-27T18:00:42.276Z,97324.34
2018-11-27T18:05:36.807Z,97325.14
2018-11-27T18:10:31.312Z,97335.59
2018-11-27T18:15:25.742Z,97332.33
2018-11-27T18:20:20.235Z,97343.53
2018-11-27T18:25:19.789Z,97342.76
2018-11-27T18:30:19.339Z,97346.98
2018-11-27T18:35:16.608Z,97358.02
2018-11-27T18:40:13.025Z,97352.63
2018-11-27T18:45:24.318Z,97359.53
2018-11-27T18:50:18.792Z,97355.67
2018-11-27T18:55:15.134Z,97367.65
2018-11-27T19:00:28.017Z,97360.67
2018-11-27T19:05:22.527Z,97362.81
2018-11-27T19:10:20.829Z,97364.27
2018-11-27T19:15:49.590Z,97365.34
2018-11-27T19:20:43.602Z,97368.09
2018-11-27T19:25:38.026Z,97368.65
2018-11-27T19:30:32.547Z,97381.65
2018-11-27T19:35:26.935Z,97387.32
2018-11-27T19:40:21.837Z,97390.77
2018-11-27T19:45:21.111Z,97400.46
2018-11-27T19:50:15.689Z,97399.58
2018-11-27T19:55:14.474Z,97402.32
2018-11-27T20:00:17.471Z,97404.78
2018-11-27T20:05:14.770Z,97406.30
2018-11-27T20:10:11.884Z,97408.08
2018-11-27T20:15:11.511Z,97408.73
2018-11-27T20:20:08.458Z,97413.59
2018-11-27T20:25:03.023Z,97417.68
2018-11-27T20:29:57.537Z,97421.48
2018-11-27T20:34:51.930Z,97420.98
2018-11-27T20:39:46.416Z,97423.71
2018-11-27T20:44:40.940Z,97419.99
2018-11-27T20:49:35.348Z,97426.64
2018-11-27T20:54:29.803Z,97415.63
2018-11-27T20:59:24.421Z,97415.45
2018-11-27T21:04:18.859Z,97424.73
2018-11-27T21:09:13.823Z,97422.78
2018-11-27T21:14:08.375Z,97431.13
2018-11-27T21:19:02.800Z,97434.56
2018-11-27T21:23:57.255Z,97437.80
2018-11-27T21:28:51.686Z,97442.35
2018-11-27T21:33:46.153Z,97441.88
2018-11-27T21:38:40.605Z,97442.06
2018-11-27T21:43:35.017Z,97443.14
2018-11-27T21:48:29.483Z,97444.45
2018-11-27T21:53:23.888Z,97449.64
2018-11-27T21:58:18.372Z,97456.64
2018-11-27T22:03:13.416Z,97451.80
2018-11-27T22:08:08.817Z,97445.60
2018-11-27T22:13:03.235Z,97448.05
2018-11-27T22:17:57.741Z,97454.41
2018-11-27T22:22:52.195Z,97454.66
2018-11-27T22:27:46.630Z,97459.53
2018-11-27T22:32:42.502Z,97467.36
2018-11-27T22:37:36.921Z,97468.37
2018-11-27T22:42:31.367Z,97467.02
2018-11-27T22:47:25.848Z,97466.69
2018-11-27T22:52:20.318Z,97476.20
2018-11-27T22:57:14.743Z,97472.98
2018-11-27T23:02:09.202Z,97475.25
2018-11-27T23:07:03.691Z,97470.34
2018-11-27T23:11:58.127Z,97468.11
2018-11-27T23:16:52.575Z,97480.30
2018-11-27T23:21:46.971Z,97472.95
2018-11-27T23:26:41.420Z,97472.98
2018-11-27T23:31:35.914Z,97466.45
2018-11-27T23:36:30.347Z,97471.47
2018-11-27T23:41:24.822Z,97476.52
2018-11-27T23:46:19.278Z,97464.97
2018-11-27T23:51:13.693Z,97463.53
2018-11-27T23:56:08.135Z,97461.29
